Time;durP1;ratioP1;P1;durP2;ratioP2;P2;SDS_P1;SDS_P2;PMS_P1;PMS_P2;Temp;Humidity;BMP_temperature;BMP_pressure;BME280_temperature;BME280_humidity;BME280_pressure;Samples;Min_cycle;Max_cycle;Signal;HPM_P1;HPM_P2
2022/04/26 03:37:33;;;;;;;30.27;13.27;;;;;;;13.04;91.42;96608.19;5072628;28;20056;-65
2022/04/26 03:40:00;;;;;;;24.00;11.05;;;;;;;13.14;90.24;96610.19;5085224;28;20056;-58
2022/04/26 03:42:27;;;;;;;15.20;7.80;;;;;;;13.11;90.44;96611.00;5083467;28;20434;-56
2022/04/26 03:44:54;;;;;;;13.93;6.60;;;;;;;12.86;90.02;96579.56;5084344;28;20063;-57
2022/04/26 03:47:20;;;;;;;10.80;4.70;;;;;;;13.19;90.39;96622.91;5084339;28;20544;-56
2022/04/26 03:49:47;;;;;;;9.95;4.18;;;;;;;12.92;89.94;96583.53;5083724;28;20055;-57
2022/04/26 03:52:13;;;;;;;11.05;4.40;;;;;;;13.35;89.97;96626.88;5083205;28;20052;-56
2022/04/26 03:54:40;;;;;;;11.63;3.85;;;;;;;13.35;90.20;96626.88;5081248;28;20082;-58
2022/04/26 03:57:07;;;;;;;8.45;3.55;;;;;;;12.66;90.52;96527.56;5082665;28;20067;-56
2022/04/26 03:59:33;;;;;;;14.98;3.42;;;;;;;13.24;90.75;96631.66;5082738;28;20044;-58
2022/04/26 04:02:01;;;;;;;9.70;3.78;;;;;;;13.48;88.37;96630.81;5082440;28;20044;-56
2022/04/26 04:04:27;;;;;;;14.50;4.70;;;;;;;13.46;86.60;96616.53;5081364;28;20388;-55
2022/04/26 04:06:54;;;;;;;10.15;4.07;;;;;;;13.44;88.65;96630.03;5081238;28;20538;-56
2022/04/26 04:09:21;;;;;;;13.95;5.15;;;;;;;13.59;87.84;96648.31;5082468;28;20060;-56
2022/04/26 04:11:48;;;;;;;8.15;3.67;;;;;;;13.71;86.81;96638.75;5082860;28;20471;-56
2022/04/26 04:14:14;;;;;;;7.85;3.25;;;;;;;13.16;86.06;96541.06;5083318;28;20052;-55
2022/04/26 04:16:41;;;;;;;9.10;3.42;;;;;;;13.92;85.75;96649.06;5083263;28;20579;-55
2022/04/26 04:19:17;;;;;;;10.00;3.58;;;;;;;13.70;86.05;96614.91;5081650;28;20058;-56
2022/04/26 04:21:45;;;;;;;12.35;4.70;;;;;;;13.30;85.34;96546.59;5081268;28;20052;-56
2022/04/26 04:24:13;;;;;;;15.18;5.78;;;;;;;13.84;86.10;96653.03;5080683;28;20052;-58
2022/04/26 04:26:40;;;;;;;13.02;5.32;;;;;;;13.76;87.39;96652.28;5080846;28;20086;-56
2022/04/26 04:29:08;;;;;;;12.40;3.97;;;;;;;13.69;86.32;96624.44;5082761;28;20063;-56
2022/04/26 04:31:35;;;;;;;10.63;3.92;;;;;;;13.98;86.45;96658.56;5082242;28;20608;-57
2022/04/26 04:34:03;;;;;;;12.23;4.50;;;;;;;14.12;85.62;96658.53;5082830;28;20048;-55
2022/04/26 04:36:29;;;;;;;20.33;10.52;;;;;;;13.69;85.14;96608.53;5082757;28;21171;-57
2022/04/26 04:38:57;;;;;;;15.20;7.35;;;;;;;14.32;84.55;96663.28;5082430;28;20043;-56
2022/04/26 04:41:24;;;;;;;15.85;6.40;;;;;;;14.21;84.98;96647.78;5084680;28;20063;-65
2022/04/26 04:43:51;;;;;;;9.77;5.05;;;;;;;14.22;84.79;96657.72;5072753;28;20071;-63
2022/04/26 04:46:17;;;;;;;10.57;4.80;;;;;;;14.10;85.45;96656.16;5076609;28;20052;-64
2022/04/26 04:48:44;;;;;;;6.32;3.72;;;;;;;14.11;85.30;96656.97;5083146;28;20146;-65
2022/04/26 04:51:11;;;;;;;5.85;3.95;;;;;;;14.41;83.76;96662.84;5086964;28;20102;-64
2022/04/26 04:53:38;;;;;;;8.18;3.30;;;;;;;14.63;82.78;96658.78;5086471;28;20048;-65
2022/04/26 04:56:08;;;;;;;13.05;4.15;;;;;;;14.96;81.62;96658.19;5086118;28;20070;-64
2022/04/26 04:58:35;;;;;;;10.13;4.32;;;;;;;15.17;79.40;96658.81;5086322;28;20505;-64
2022/04/26 05:01:02;;;;;;;9.48;6.28;;;;;;;15.37;78.51;96667.47;5084775;28;20059;-65
2022/04/26 05:03:29;;;;;;;17.52;8.90;;;;;;;15.52;78.19;96673.75;5086562;28;20454;-65
2022/04/26 05:05:56;;;;;;;12.02;6.82;;;;;;;15.79;77.21;96671.94;5085201;28;20055;-65
2022/04/26 05:08:24;;;;;;;13.48;6.20;;;;;;;15.61;76.23;96610.66;5086580;28;20044;-57
2022/04/26 05:10:51;;;;;;;16.70;6.80;;;;;;;16.06;75.03;96651.28;5084407;28;20043;-54
2022/04/26 05:13:19;;;;;;;12.13;6.22;;;;;;;16.43;74.84;96676.44;5086094;28;20518;-55
2022/04/26 05:15:46;;;;;;;13.82;5.43;;;;;;;16.64;73.61;96676.19;5086245;28;20062;-58
2022/04/26 05:18:14;;;;;;;9.35;4.93;;;;;;;16.82;72.75;96677.97;5084861;28;20055;-54
2022/04/26 05:20:41;;;;;;;14.02;5.50;;;;;;;16.92;72.55;96665.84;5086197;28;20071;-54
2022/04/26 05:25:53;;;;;;;10.10;5.03;;;;;;;16.59;70.59;96631.94;5085200;28;20062;-64
2022/04/26 05:28:20;;;;;;;8.52;5.55;;;;;;;16.82;71.25;96639.59;5085942;28;20044;-65
2022/04/26 05:30:53;;;;;;;8.52;4.20;;;;;;;16.91;71.14;96675.44;5084011;28;20555;-65
2022/04/26 05:33:21;;;;;;;6.03;4.30;;;;;;;16.60;73.47;96678.25;5086175;28;20512;-65
2022/04/26 05:35:49;;;;;;;12.25;4.40;;;;;;;17.17;72.72;96681.06;5085554;28;20139;-65
2022/04/26 05:38:16;;;;;;;13.10;5.43;;;;;;;17.04;70.01;96589.72;5085740;28;20051;-65
2022/04/26 05:40:44;;;;;;;8.10;4.00;;;;;;;17.59;70.61;96676.84;5086073;28;20434;-63
2022/04/26 05:43:11;;;;;;;8.23;4.00;;;;;;;18.03;68.90;96684.91;5079802;28;20059;-64
2022/04/26 05:45:37;;;;;;;8.63;3.80;;;;;;;18.41;65.69;96686.22;5078680;28;20056;-56
2022/04/26 05:48:09;;;;;;;9.07;4.07;;;;;;;18.48;64.80;96683.25;5084965;28;20129;-55
2022/04/26 05:50:36;;;;;;;8.80;3.63;;;;;;;18.68;64.45;96681.28;5085187;28;20421;-56
2022/04/26 05:53:03;;;;;;;5.05;3.47;;;;;;;19.03;62.42;96686.13;5084986;28;20444;-55
2022/04/26 05:55:30;;;;;;;9.00;4.50;;;;;;;19.17;62.57;96690.66;5083363;28;20446;-63
2022/04/26 05:57:57;;;;;;;11.90;4.88;;;;;;;19.61;60.50;96694.88;5082586;28;20502;-55
2022/04/26 06:00:23;;;;;;;10.18;5.03;;;;;;;19.76;59.66;96682.84;5084926;28;20048;-65
2022/04/26 06:02:50;;;;;;;12.70;4.88;;;;;;;20.06;58.71;96692.94;5083719;28;20582;-63
2022/04/26 06:05:19;;;;;;;11.40;4.40;;;;;;;20.28;57.30;96688.38;5084601;28;20510;-66
2022/04/26 06:07:46;;;;;;;7.13;4.95;;;;;;;20.31;56.78;96681.88;5085102;28;20446;-62
2022/04/26 06:10:13;;;;;;;8.15;4.55;;;;;;;20.58;55.46;96685.13;5085241;28;20066;-60
2022/04/26 06:12:42;;;;;;;7.07;4.38;;;;;;;20.37;54.61;96615.38;5085183;28;20079;-57
2022/04/26 06:15:08;;;;;;;8.35;4.85;;;;;;;21.17;53.19;96713.59;5085133;28;20126;-65
2022/04/26 06:17:35;;;;;;;11.68;4.80;;;;;;;21.17;53.71;96691.06;5084622;28;20056;-65
2022/04/26 06:20:03;;;;;;;8.20;4.60;;;;;;;21.03;52.21;96618.25;5084589;28;20044;-63
2022/04/26 06:22:30;;;;;;;9.20;4.20;;;;;;;21.26;51.59;96681.97;5083385;28;20048;-57
2022/04/26 06:24:56;;;;;;;10.52;4.50;;;;;;;20.94;51.29;96609.66;5082501;28;20508;-58
2022/04/26 06:27:23;;;;;;;6.75;3.90;;;;;;;21.37;50.10;96660.66;5084304;28;20157;-57
2022/04/26 06:29:50;;;;;;;9.90;4.00;;;;;;;21.69;49.54;96666.06;5084870;28;20060;-59
2022/04/26 06:32:16;;;;;;;6.95;3.83;;;;;;;21.97;48.59;96667.97;5083426;28;20078;-57
2022/04/26 06:34:43;;;;;;;5.78;3.88;;;;;;;21.85;47.57;96617.22;5083651;28;20506;-62
2022/04/26 06:37:12;;;;;;;8.07;4.10;;;;;;;21.85;46.93;96601.09;5084774;28;20052;-63
2022/04/26 06:39:40;;;;;;;7.75;3.90;;;;;;;22.19;44.78;96657.53;5065514;28;20048;-69
2022/04/26 06:42:07;;;;;;;9.23;3.45;;;;;;;21.92;44.48;96667.75;5065147;28;20485;-70
2022/04/26 06:44:34;;;;;;;7.07;3.75;;;;;;;22.26;43.14;96671.41;5064844;28;20072;-57
2022/04/26 06:47:01;;;;;;;5.95;3.58;;;;;;;21.97;43.28;96591.81;5064884;28;20932;-66
2022/04/26 06:49:27;;;;;;;6.53;3.80;;;;;;;22.24;43.83;96606.16;5080317;28;20059;-60
2022/04/26 06:51:54;;;;;;;5.50;3.60;;;;;;;22.53;43.78;96673.72;5084829;28;20122;-65
2022/04/26 06:54:21;;;;;;;7.47;3.90;;;;;;;22.26;42.82;96609.31;5085468;28;20426;-56
2022/04/26 06:56:47;;;;;;;6.20;4.32;;;;;;;22.53;43.87;96667.25;5083853;28;20052;-56
2022/04/26 06:59:14;;;;;;;5.80;4.20;;;;;;;22.27;44.74;96622.16;5085249;28;20514;-56
2022/04/26 07:01:41;;;;;;;10.60;4.47;;;;;;;22.29;45.62;96613.25;5084462;28;20114;-57
2022/04/26 07:04:08;;;;;;;6.95;4.75;;;;;;;21.73;48.12;96675.22;5083817;28;20044;-64
2022/04/26 07:06:38;;;;;;;14.02;4.25;;;;;;;21.39;49.42;96615.91;5083227;28;20052;-63
2022/04/26 07:09:05;;;;;;;5.00;4.50;;;;;;;21.99;49.34;96661.88;5084922;28;20051;-63
2022/04/26 07:11:32;;;;;;;6.82;4.22;;;;;;;22.20;49.20;96669.63;5084155;28;20493;-61
2022/04/26 07:13:59;;;;;;;8.20;3.92;;;;;;;22.46;47.89;96669.06;5085127;28;20043;-64
2022/04/26 07:16:25;;;;;;;8.43;4.80;;;;;;;22.32;45.84;96658.28;5082899;28;20052;-64
2022/04/26 07:18:52;;;;;;;6.28;4.43;;;;;;;22.48;44.29;96677.06;5084991;28;20052;-56
2022/04/26 07:21:19;;;;;;;8.10;4.00;;;;;;;22.66;44.10;96673.66;5084585;28;20074;-61
2022/04/26 07:23:46;;;;;;;7.47;3.75;;;;;;;22.60;43.09;96610.56;5084139;28;20059;-63
2022/04/26 07:26:13;;;;;;;4.85;3.50;;;;;;;23.17;41.97;96632.56;5084361;28;20055;-64
2022/04/26 07:28:40;;;;;;;4.13;3.78;;;;;;;23.38;41.76;96688.28;5084451;28;20567;-66
2022/04/26 07:31:08;;;;;;;5.72;4.80;;;;;;;23.58;41.67;96663.28;5083764;28;20462;-54
2022/04/26 07:36:22;;;;;;;5.80;4.05;;;;;;;23.09;42.77;96670.84;5084584;28;20052;-65
2022/04/26 07:38:49;;;;;;;4.50;4.10;;;;;;;23.08;43.30;96667.22;5069623;28;20052;-65
2022/04/26 07:41:17;;;;;;;4.43;3.95;;;;;;;23.32;42.17;96673.19;5063369;28;20056;-56
2022/04/26 07:43:44;;;;;;;5.85;3.53;;;;;;;23.39;38.66;96672.91;5063586;28;20366;-57
2022/04/26 07:46:15;;;;;;;8.25;3.95;;;;;;;23.58;39.30;96666.09;5061852;28;20044;-55
2022/04/26 07:48:43;;;;;;;6.70;3.95;;;;;;;23.81;38.22;96669.16;5072760;28;20520;-68
2022/04/26 07:51:11;;;;;;;8.00;4.03;;;;;;;23.47;37.82;96624.09;5083529;28;20130;-57
2022/04/26 07:53:38;;;;;;;5.00;3.30;;;;;;;23.28;37.91;96573.63;5083663;28;20535;-56
2022/04/26 07:56:06;;;;;;;4.28;3.95;;;;;;;23.94;38.11;96674.72;5084010;28;20150;-54
2022/04/26 07:58:32;;;;;;;4.78;4.15;;;;;;;24.05;37.28;96669.41;5084298;28;20066;-58
2022/04/26 08:01:00;;;;;;;4.95;3.72;;;;;;;23.72;37.73;96668.34;5084021;28;20052;-67
2022/04/26 08:03:28;;;;;;;3.83;3.40;;;;;;;23.88;37.32;96665.25;5083905;28;20105;-55
2022/04/26 08:05:55;;;;;;;4.18;3.78;;;;;;;23.96;37.50;96660.88;5081837;28;20135;-59
2022/04/26 08:08:21;;;;;;;4.95;4.63;;;;;;;24.47;37.30;96676.09;5083767;28;20119;-58
2022/04/26 08:10:55;;;;;;;4.88;3.95;;;;;;;24.93;35.48;96674.88;5083333;28;20051;-56
2022/04/26 08:13:22;;;;;;;6.72;4.00;;;;;;;24.00;36.90;96678.53;5083677;28;20048;-65
2022/04/26 08:15:49;;;;;;;4.07;3.78;;;;;;;24.00;36.24;96672.88;5083055;28;20067;-57
2022/04/26 08:18:16;;;;;;;3.83;3.58;;;;;;;24.45;36.83;96680.66;5083145;28;20052;-63
2022/04/26 08:20:44;;;;;;;4.22;3.83;;;;;;;25.10;35.18;96670.41;5083554;28;20048;-57
2022/04/26 08:23:12;;;;;;;3.80;3.50;;;;;;;24.47;34.84;96554.31;5083883;28;20152;-56
2022/04/26 08:28:28;;;;;;;4.10;3.70;;;;;;;25.42;34.59;96662.53;5083513;28;20067;-67
2022/04/26 08:31:00;;;;;;;6.55;4.10;;;;;;;25.86;34.20;96669.28;5083239;28;20051;-58
2022/04/26 08:33:28;;;;;;;6.03;4.10;;;;;;;25.33;33.26;96626.44;5083762;28;20517;-66
2022/04/26 08:35:55;;;;;;;5.10;4.53;;;;;;;25.27;34.46;96657.50;5083241;28;20064;-56
2022/04/26 08:38:29;;;;;;;7.45;4.30;;;;;;;25.21;35.20;96659.38;5072120;28;20624;-67
2022/04/26 08:40:56;;;;;;;5.10;4.47;;;;;;;25.15;35.18;96672.63;5062870;28;20048;-69
2022/04/26 08:43:23;;;;;;;4.38;3.92;;;;;;;25.24;35.01;96669.00;5063108;28;20059;-65
2022/04/26 08:45:49;;;;;;;4.63;4.18;;;;;;;24.94;34.88;96627.47;5063007;28;20057;-56
2022/04/26 08:51:05;;;;;;;4.50;4.13;;;;;;;24.42;36.43;96665.38;5083189;28;20503;-57
2022/04/26 08:53:34;;;;;;;9.13;4.30;;;;;;;24.43;36.78;96664.13;5081973;28;20131;-68
2022/04/26 08:56:06;;;;;;;5.38;3.95;;;;;;;23.97;36.74;96667.34;5081450;28;20079;-67
2022/04/26 08:58:34;;;;;;;7.43;4.15;;;;;;;24.08;36.51;96665.66;5083085;28;20052;-66
2022/04/26 09:01:10;;;;;;;6.15;3.60;;;;;;;24.30;36.63;96657.81;5083210;28;20078;-69
2022/04/26 09:03:59;;;;;;;4.90;4.07;;;;;;;23.48;37.38;96658.81;5081559;28;20131;-67
2022/04/26 09:06:31;;;;;;;7.00;3.90;;;;;;;23.90;36.82;96657.06;5083102;28;20048;-59
2022/04/26 09:09:07;;;;;;;4.28;3.88;;;;;;;24.49;36.13;96648.09;5083516;28;20059;-73
2022/04/26 09:11:34;;;;;;;8.18;4.35;;;;;;;24.73;35.50;96651.91;5082445;28;20510;-67
2022/04/26 09:14:04;;;;;;;10.02;4.88;;;;;;;24.44;36.22;96605.47;5083012;28;20078;-67
2022/04/26 09:16:30;;;;;;;8.93;5.07;;;;;;;23.94;36.48;96635.09;5082976;28;20051;-68
2022/04/26 09:19:00;;;;;;;4.97;4.53;;;;;;;24.31;35.86;96631.06;5083314;28;20052;-58
2022/04/26 09:21:28;;;;;;;9.00;4.80;;;;;;;24.67;36.25;96642.47;5082577;28;20048;-66
2022/04/26 09:23:57;;;;;;;4.68;4.05;;;;;;;24.34;36.08;96644.31;5082363;28;20060;-56
2022/04/26 09:26:31;;;;;;;4.60;4.20;;;;;;;24.46;36.10;96649.03;5083031;28;20056;-66
2022/04/26 09:28:58;;;;;;;9.45;4.18;;;;;;;24.47;35.63;96639.28;5085979;28;20070;-58
2022/04/26 09:31:27;;;;;;;10.95;7.00;;;;;;;24.62;35.62;96640.22;5086239;28;20442;-58
2022/04/26 09:34:04;;;;;;;11.05;5.10;;;;;;;24.90;35.11;96636.13;5086318;28;20040;-59
2022/04/26 09:36:36;;;;;;;5.05;4.65;;;;;;;24.74;35.47;96624.34;5086005;28;20055;-56
2022/04/26 09:39:05;;;;;;;10.65;4.65;;;;;;;24.07;36.86;96632.97;5070475;28;20059;-56
2022/04/26 09:41:34;;;;;;;5.80;4.65;;;;;;;24.19;36.14;96600.88;5066207;28;20811;-67
2022/04/26 09:44:04;;;;;;;5.57;5.00;;;;;;;24.33;36.42;96611.59;5066077;28;20055;-57
2022/04/26 09:46:42;;;;;;;8.38;5.75;;;;;;;23.96;37.43;96626.94;5065890;28;20056;-68
2022/04/26 09:49:10;;;;;;;6.72;4.88;;;;;;;23.64;37.74;96559.59;5079032;28;20051;-57
2022/04/26 09:51:38;;;;;;;6.70;4.40;;;;;;;23.33;38.28;96589.97;5085609;28;20056;-68
2022/04/26 09:54:06;;;;;;;8.82;5.20;;;;;;;23.41;39.30;96613.88;5086394;28;20058;-57
2022/04/26 09:56:34;;;;;;;10.00;4.88;;;;;;;23.79;38.96;96612.25;5081119;28;20063;-68
2022/04/26 09:59:03;;;;;;;8.80;5.40;;;;;;;24.02;38.59;96613.75;5066251;28;20207;-71
2022/04/26 10:01:37;;;;;;;7.50;5.72;;;;;;;23.50;39.56;96594.13;5072541;28;20055;-69
2022/04/26 10:04:06;;;;;;;5.05;4.38;;;;;;;23.60;39.02;96612.69;5076401;28;20128;-68
2022/04/26 10:06:38;;;;;;;7.20;5.28;;;;;;;23.67;37.43;96573.59;5075245;28;20055;-64
2022/04/26 10:09:07;;;;;;;7.80;4.38;;;;;;;22.94;39.02;96512.38;5075352;28;20040;-68
2022/04/26 10:11:34;;;;;;;6.70;4.30;;;;;;;24.17;37.12;96614.72;5082888;28;20059;-57
2022/04/26 10:14:03;;;;;;;8.18;4.40;;;;;;;24.00;37.04;96609.81;5078119;28;20052;-66
2022/04/26 10:16:31;;;;;;;5.57;4.50;;;;;;;23.31;37.89;96556.53;5070299;28;20419;-56
2022/04/26 10:19:09;;;;;;;4.55;4.05;;;;;;;23.29;38.79;96592.13;5085949;28;20533;-64
2022/04/26 10:21:38;;;;;;;3.83;3.60;;;;;;;24.24;38.19;96625.75;5068010;28;20158;-73
2022/04/26 10:24:22;;;;;;;4.07;3.60;;;;;;;24.49;39.98;96633.94;5072532;28;20431;-56
2022/04/26 10:26:51;;;;;;;6.40;4.13;;;;;;;24.26;43.54;96603.41;5067587;28;20044;-71
2022/04/26 10:29:24;;;;;;;4.80;4.35;;;;;;;24.31;45.22;96636.75;5075029;28;20041;-69
2022/04/26 10:31:56;;;;;;;5.88;4.53;;;;;;;23.70;40.96;96631.25;5073278;28;20515;-59
2022/04/26 10:34:27;;;;;;;7.50;3.60;;;;;;;23.38;39.58;96631.75;5080494;28;20055;-57
2022/04/26 10:37:01;;;;;;;4.20;3.88;;;;;;;23.76;40.12;96635.84;5078780;28;20297;-66
2022/04/26 10:39:39;;;;;;;3.97;3.58;;;;;;;23.93;38.17;96644.84;5079382;28;20052;-70
2022/04/26 10:42:12;;;;;;;4.88;3.80;;;;;;;24.59;36.77;96629.06;5075064;28;20055;-72
2022/04/26 10:44:41;;;;;;;6.55;4.53;;;;;;;24.53;36.91;96577.13;5071932;28;20040;-73
2022/04/26 10:47:09;;;;;;;4.85;4.53;;;;;;;26.01;36.08;96621.91;5073379;28;20071;-62
2022/04/26 10:49:35;;;;;;;5.10;4.70;;;;;;;25.78;34.40;96616.97;5076094;28;20120;-59
2022/04/26 10:52:17;;;;;;;7.60;4.70;;;;;;;25.00;35.39;96623.53;5077329;28;20063;-58
2022/04/26 10:54:48;;;;;;;5.60;4.85;;;;;;;24.98;35.83;96617.53;5078630;27;20051;-56
2022/04/26 10:57:16;;;;;;;10.40;4.90;;;;;;;25.72;35.68;96604.72;5099690;28;20047;-67
2022/04/26 10:59:47;;;;;;;4.88;4.43;;;;;;;25.82;35.30;96594.88;5100432;28;20108;-67
2022/04/26 11:02:19;;;;;;;5.82;4.25;;;;;;;25.63;36.34;96610.41;5100901;28;20485;-58
2022/04/26 11:04:46;;;;;;;4.53;4.13;;;;;;;24.73;36.25;96592.41;5101126;28;20051;-65
2022/04/26 11:07:14;;;;;;;7.47;4.20;;;;;;;24.78;36.98;96620.09;5100297;28;20237;-59
2022/04/26 11:09:50;;;;;;;4.57;4.18;;;;;;;24.13;38.12;96590.66;5099926;28;20043;-71
2022/04/26 11:12:18;;;;;;;3.67;3.38;;;;;;;23.90;38.80;96611.81;5101662;28;20442;-57
2022/04/26 11:14:46;;;;;;;4.30;4.00;;;;;;;23.43;38.46;96518.84;5101497;28;20172;-68
2022/04/26 11:17:15;;;;;;;7.43;4.22;;;;;;;23.78;39.53;96605.03;5100601;28;20470;-66
2022/04/26 11:19:48;;;;;;;3.58;3.28;;;;;;;23.47;38.79;96600.69;5100216;28;20047;-68
2022/04/26 11:22:17;;;;;;;5.03;3.40;;;;;;;23.08;39.91;96602.22;5099735;28;20529;-58
2022/04/26 11:30:44;;;;;;;7.47;3.28;;;;;;;22.17;41.42;96605.63;5068639;28;20082;-58
2022/04/26 11:33:15;;;;;;;5.57;3.30;;;;;;;21.73;42.07;96590.63;5072561;28;20515;-55
2022/04/26 11:35:43;;;;;;;4.85;3.00;;;;;;;21.36;43.57;96625.25;5070577;28;20471;-66
2022/04/26 11:38:14;;;;;;;5.28;3.70;;;;;;;21.24;45.23;96623.25;5073380;28;20040;-66
2022/04/26 11:40:47;;;;;;;4.25;3.20;;;;;;;20.65;46.10;96614.56;5076765;28;20127;-56
2022/04/26 11:43:16;;;;;;;3.65;3.25;;;;;;;20.61;45.09;96627.97;5069031;28;20063;-63
2022/04/26 11:45:50;;;;;;;3.30;2.97;;;;;;;20.46;45.56;96630.38;5073927;28;20056;-69
2022/04/26 11:48:19;;;;;;;5.38;3.15;;;;;;;20.00;47.53;96607.53;5070342;28;20105;-65
2022/04/26 11:50:49;;;;;;;2.85;2.58;;;;;;;19.48;48.13;96628.13;5064433;28;20197;-57
2022/04/26 11:53:18;;;;;;;7.72;3.25;;;;;;;18.79;49.07;96624.91;5076906;28;20063;-74
2022/04/26 11:55:53;;;;;;;4.85;3.08;;;;;;;18.23;51.88;96593.19;5075249;28;20471;-66
2022/04/26 11:58:37;;;;;;;3.35;3.05;;;;;;;17.67;54.08;96586.66;5092725;28;20052;-57
2022/04/26 12:01:15;;;;;;;3.40;2.70;;;;;;;17.79;54.98;96630.88;5068582;28;20060;-59
2022/04/26 12:03:49;;;;;;;3.78;2.50;;;;;;;17.54;57.38;96636.13;5068967;28;20056;-68
2022/04/26 12:06:24;;;;;;;10.88;2.80;;;;;;;17.23;59.39;96651.38;5064255;28;20049;-57
2022/04/26 12:09:00;;;;;;;3.92;2.95;;;;;;;16.63;64.88;96636.69;5074723;28;20126;-68
2022/04/26 12:11:29;;;;;;;5.40;3.05;;;;;;;16.81;68.31;96699.56;5073651;28;21724;-69
2022/04/26 12:14:07;;;;;;;12.38;4.03;;;;;;;16.73;78.71;96708.44;5075142;28;20056;-68
2022/04/26 12:16:47;;;;;;;12.95;3.65;;;;;;;16.60;82.61;96745.38;5070693;28;20063;-70
2022/04/26 12:19:14;;;;;;;17.52;4.82;;;;;;;16.08;90.18;96704.75;5070407;28;20592;-56
2022/04/26 12:21:46;;;;;;;14.02;4.68;;;;;;;16.05;84.38;96769.84;5070761;28;20052;-69
2022/04/26 12:24:16;;;;;;;19.07;5.67;;;;;;;15.64;93.67;96788.53;5070943;28;20369;-70
2022/04/26 12:26:53;;;;;;;14.52;4.80;;;;;;;15.03;98.76;96694.41;5080286;28;20066;-71
2022/04/26 12:29:20;;;;;;;10.23;4.93;;;;;;;15.09;99.06;96763.28;5080464;28;20443;-70
2022/04/26 12:31:48;;;;;;;21.55;6.53;;;;;;;14.96;100.00;96764.97;5077960;28;20060;-70
2022/04/26 12:34:26;;;;;;;10.52;4.30;;;;;;;15.06;100.00;96771.69;5071561;28;20044;-67
2022/04/26 12:37:07;;;;;;;13.60;6.38;;;;;;;15.13;100.00;96785.59;5072710;28;20065;-65
2022/04/26 12:39:41;;;;;;;11.15;5.78;;;;;;;15.10;100.00;96775.25;5068812;28;20083;-69
2022/04/26 12:42:10;;;;;;;7.30;5.05;;;;;;;14.99;100.00;96777.31;5069315;28;20526;-74
2022/04/26 12:44:48;;;;;;;10.80;5.53;;;;;;;14.93;100.00;96753.81;5065397;28;20052;-58
2022/04/26 12:53:04;;;;;;;9.57;5.20;;;;;;;13.90;100.00;96649.44;5069407;28;20051;-60
2022/04/26 12:55:37;;;;;;;12.18;4.88;;;;;;;14.19;100.00;96652.94;5071985;28;20052;-74
2022/04/26 12:58:04;;;;;;;9.20;4.97;;;;;;;14.43;100.00;96679.97;5069198;28;20074;-57
2022/04/26 13:00:33;;;;;;;9.55;5.43;;;;;;;15.28;100.00;96646.78;5068622;28;20483;-64
2022/04/26 13:03:03;;;;;;;11.65;5.88;;;;;;;16.56;100.00;96694.28;5076927;28;20044;-57
2022/04/26 13:05:42;;;;;;;10.65;4.50;;;;;;;17.09;100.00;96709.56;5077167;28;20124;-59
2022/04/26 13:08:09;;;;;;;5.95;3.80;;;;;;;18.30;97.73;96649.16;5077163;28;20048;-68
2022/04/26 13:10:37;;;;;;;7.95;3.58;;;;;;;20.48;82.08;96720.78;5077446;28;20542;-57
2022/04/26 13:13:05;;;;;;;7.68;4.20;;;;;;;21.59;69.31;96672.81;5053908;28;20446;-59
2022/04/26 13:15:32;;;;;;;4.50;3.70;;;;;;;22.08;68.66;96727.63;5051104;28;20081;-60
2022/04/26 13:17:59;;;;;;;5.05;4.03;;;;;;;22.56;63.21;96684.09;5056643;28;20494;-61
2022/04/26 13:20:27;;;;;;;5.88;4.07;;;;;;;23.34;60.89;96676.34;5056897;28;20110;-58
2022/04/26 13:22:53;;;;;;;12.10;7.57;;;;;;;23.97;56.10;96718.28;5058155;28;20055;-67
2022/04/26 13:25:20;;;;;;;5.00;4.45;;;;;;;24.22;54.20;96673.53;5052962;28;20379;-72
2022/04/26 13:27:48;;;;;;;4.93;3.90;;;;;;;23.88;53.54;96704.88;5059575;28;20099;-57
2022/04/26 13:30:16;;;;;;;4.18;3.83;;;;;;;25.44;49.67;96700.47;5055529;28;20044;-56
2022/04/26 13:32:44;;;;;;;8.13;4.00;;;;;;;25.55;49.21;96694.28;5056000;28;20060;-70
2022/04/26 13:35:11;;;;;;;6.25;4.18;;;;;;;26.07;47.08;96702.31;5050041;28;20045;-74
2022/04/26 13:37:39;;;;;;;3.90;3.65;;;;;;;24.72;47.68;96712.63;5050494;28;20388;-68
2022/04/26 13:40:07;;;;;;;5.00;3.97;;;;;;;23.76;51.49;96708.59;5053068;28;20414;-67
2022/04/26 13:42:35;;;;;;;4.35;4.00;;;;;;;23.44;51.23;96697.78;5057048;28;20052;-60
2022/04/26 13:45:03;;;;;;;5.95;3.90;;;;;;;23.22;54.03;96669.50;5059058;28;20052;-57
2022/04/26 13:47:30;;;;;;;4.63;4.15;;;;;;;23.67;53.90;96632.19;5053775;28;20508;-70
2022/04/26 13:49:57;;;;;;;4.20;3.78;;;;;;;24.49;51.00;96670.75;5061071;28;20053;-56
2022/04/26 13:52:24;;;;;;;4.78;4.10;;;;;;;22.82;51.32;96674.25;5053434;28;20067;-66
2022/04/26 13:54:51;;;;;;;7.03;4.03;;;;;;;23.50;55.00;96684.59;5060692;28;20052;-68
2022/04/26 13:57:18;;;;;;;3.90;3.45;;;;;;;23.24;53.96;96677.50;5062655;28;20538;-67
2022/04/26 13:59:46;;;;;;;9.07;3.83;;;;;;;22.79;54.98;96663.09;5063562;28;20067;-67
2022/04/26 14:02:13;;;;;;;4.50;4.10;;;;;;;22.84;56.49;96665.34;5065059;28;20044;-56
2022/04/26 14:04:40;;;;;;;4.13;3.67;;;;;;;22.48;54.61;96660.94;5065767;28;20052;-57
2022/04/26 14:07:07;;;;;;;4.15;3.78;;;;;;;22.27;54.27;96622.16;5063530;28;20045;-57
2022/04/26 14:09:34;;;;;;;4.97;4.10;;;;;;;21.92;55.75;96543.66;5066099;28;20079;-68
2022/04/26 14:12:02;;;;;;;6.50;3.92;;;;;;;23.04;55.50;96666.56;5065936;28;20052;-65
2022/04/26 14:22:46;;;;;;;4.93;3.75;;;;;;;22.73;55.04;96597.91;5066286;28;20458;-67
2022/04/26 14:25:14;;;;;;;3.80;3.50;;;;;;;23.03;56.30;96650.06;5065404;28;20584;-57
2022/04/26 14:27:43;;;;;;;3.80;3.50;;;;;;;23.17;53.74;96655.97;5066301;28;20083;-58
2022/04/26 14:30:11;;;;;;;3.90;3.47;;;;;;;23.05;52.30;96619.31;5064031;28;20274;-57
2022/04/26 14:32:58;;;;;;;6.85;3.80;;;;;;;22.73;51.72;96572.50;5064180;28;20066;-57
2022/04/26 14:35:27;;;;;;;3.53;3.22;;;;;;;22.79;49.69;96561.41;5065779;28;20060;-57
2022/04/26 14:37:54;;;;;;;3.95;3.75;;;;;;;23.43;46.76;96640.41;5065411;28;20411;-68
2022/04/26 14:40:21;;;;;;;3.67;3.28;;;;;;;23.58;48.20;96646.31;5063793;28;20491;-57
2022/04/26 14:42:48;;;;;;;4.10;3.60;;;;;;;22.84;48.77;96563.63;5065277;28;20048;-60
2022/04/26 14:45:14;;;;;;;4.05;3.75;;;;;;;23.10;48.68;96644.13;5065051;28;20048;-68
2022/04/26 14:47:41;;;;;;;4.95;3.20;;;;;;;22.43;48.02;96588.13;5063925;28;20454;-58
2022/04/26 14:50:09;;;;;;;3.40;3.10;;;;;;;21.54;49.93;96497.84;5065523;28;20063;-57
2022/04/26 14:52:37;;;;;;;5.60;3.67;;;;;;;22.48;49.65;96638.34;5058511;28;20057;-56
2022/04/26 14:55:08;;;;;;;7.32;5.20;;;;;;;22.49;51.17;96651.22;5045516;28;20045;-56
2022/04/26 14:57:36;;;;;;;8.40;4.60;;;;;;;22.27;51.70;96649.63;5044875;28;20055;-67
2022/04/26 15:00:05;;;;;;;5.70;4.07;;;;;;;22.09;51.27;96650.25;5045167;28;20045;-56
2022/04/26 15:02:39;;;;;;;5.20;3.83;;;;;;;22.12;49.90;96643.69;5044742;28;20088;-68
2022/04/26 15:05:08;;;;;;;6.45;4.22;;;;;;;21.99;51.27;96640.09;5043553;28;20443;-57
2022/04/26 15:10:21;;;;;;;5.50;3.65;;;;;;;21.75;51.90;96647.34;5045133;28;20053;-68
2022/04/26 15:18:20;;;;;;;5.68;3.28;;;;;;;21.35;51.25;96600.34;5044889;28;20053;-67
2022/04/26 15:20:51;;;;;;;3.83;3.50;;;;;;;21.42;52.42;96605.78;5045150;28;20056;-57
2022/04/26 15:23:20;;;;;;;4.10;3.80;;;;;;;21.62;51.93;96626.84;5043532;28;20057;-57
2022/04/26 15:25:52;;;;;;;4.70;3.72;;;;;;;21.75;52.73;96643.75;5043736;28;20435;-69
2022/04/26 15:28:20;;;;;;;4.40;3.42;;;;;;;21.40;52.90;96654.13;5044839;28;20147;-57
2022/04/26 15:30:48;;;;;;;3.58;3.28;;;;;;;20.84;52.16;96571.34;5045070;28;20045;-56
2022/04/26 15:33:19;;;;;;;20.95;5.45;;;;;;;21.45;52.89;96658.41;5042670;28;20063;-56
2022/04/26 15:35:46;;;;;;;7.90;4.53;;;;;;;21.29;52.28;96684.69;5043587;28;20144;-56
2022/04/26 15:38:13;;;;;;;4.88;4.30;;;;;;;20.93;54.15;96664.38;5044339;28;20052;-56
2022/04/26 15:40:41;;;;;;;3.85;3.55;;;;;;;20.89;56.98;96697.50;5044571;28;20068;-55
2022/04/26 15:43:08;;;;;;;5.75;3.78;;;;;;;20.54;63.74;96704.13;5043091;28;20396;-58
2022/04/26 15:45:36;;;;;;;5.72;3.83;;;;;;;19.74;66.47;96701.38;5044329;28;20595;-60
2022/04/26 15:48:04;;;;;;;4.43;4.03;;;;;;;19.47;65.32;96704.44;5044427;28;20159;-56
2022/04/26 15:50:31;;;;;;;4.65;3.70;;;;;;;19.24;64.84;96663.19;5047477;28;20073;-56
2022/04/26 15:52:58;;;;;;;6.38;3.80;;;;;;;19.13;60.06;96602.88;5053490;28;20063;-57
2022/04/26 15:55:31;;;;;;;3.78;2.90;;;;;;;19.03;53.39;96573.81;5062324;28;20588;-58